Terminal Aerodrome Forecast
Issued by NWS Wakefield, VA

Home | Current Version | Previous Version | Text Only | Print | Product List | Glossary On
Versions: 1 2 3 4 5 6 7 8 9 10 11 12 13 14 15 16
173
FTUS41 KAKQ 291738
TAFECG
TAF
KECG 291738Z 2918/3018 13006KT 5SM -SHRA SCT009 BKN025 OVC040
      TEMPO 2918/2922 2SM SHRA BR OVC009
     FM292200 12005KT 5SM -SHRA BR BKN040 OVC120
     FM300400 10004KT 3SM -RA BR OVC020
     FM301200 06004KT 2SM -RA BR OVC007=

USA.gov is the U.S. government's official web portal to all federal, state and local government web resources and services.